Aviation Digital Data Service (ADDS)

Output produced by METARs form (1819 UTC 24 June 2018)
found at http://aviationweather.gov/adds/metars/
 
KAGC 241737Z 2418/2518 27014G20KT P6SM VCSH BKN040 
     FM242200 29010KT P6SM BKN070 
     FM250800 32005KT P6SM SCT015 
     FM251500 33006KT P6SM SCT100